Djeneba — WDD7832 — position and weather

sailwx.info

Track history (hours):
 
Tides and Currents Weather Stations Pressure Air Temp Water Temp Dewpoint Dewpoint Depression Visibility Wind Speed Wind Dir Waves Ship Positions

Djeneba

Owner: Keller, James R, Gig Harbor, WA. More information available from US FCC via Universal Licensing System and Coast Guard Vessel Documentation Center.

Last reported at 2017-Aug-11 22:03 UTC. Time now 2017-Aug-18 10:52 UTC.
Position N 47°20' W 122°28'.

Length 19 m.

Type: Pleasure craft. MMSI: 367191910.

Date/timePositionNaut miles runAvg speedWind from/ knotsBaromVisibWave heightAir tempDewpointWater temp
2017-Aug-11 22:03N 47°20' W 122°28'1 9.5
2017-Aug-11 21:58N 47°21' W 122°27'5 9.9
2017-Aug-11 21:30N 47°23' W 122°21'1 2.3
2017-Aug-11 21:00N 47°24' W 122°20'0 0.0
2017-Aug-11 20:30N 47°24' W 122°20'0 0.1
2017-Aug-11 20:00N 47°24' W 122°20'4 8.1
2017-Aug-11 19:30N 47°27' W 122°23'9 8.5
2017-Aug-11 18:28N 47°36' W 122°23'1 0.0
2017-Aug-10 21:24N 47°36' W 122°21'6 9.3
2017-Aug-10 20:47N 47°33' W 122°27'311.0
2017-Aug-10 20:30N 47°30' W 122°30'711.4
2017-Aug-10 19:53N 47°23' W 122°32'5 0.2
2017-Aug-09 21:08N 47°18' W 122°30'3 0.1
2017-Aug-08 21:12N 47°17' W 122°26'2 9.2
2017-Aug-08 20:59N 47°19' W 122°27'5 9.8
2017-Aug-08 20:30N 47°23' W 122°23'5 9.7
2017-Aug-08 20:00N 47°27' W 122°23'610.4
2017-Aug-08 19:28N 47°33' W 122°25'5 1.0
2017-Aug-08 14:51N 47°37' W 122°21'0 0.0
2017-Aug-08 12:55N 47°37' W 122°21'0 0.0
2017-Aug-08 12:29N 47°37' W 122°21'0 0.0
2017-Aug-08 11:59N 47°37' W 122°21'0 0.0
2017-Aug-08 11:29N 47°37' W 122°21'0 0.0
2017-Aug-08 10:59N 47°37' W 122°21'0 0.0
2017-Aug-08 10:28N 47°37' W 122°21'0 0.0
2017-Aug-08 09:59N 47°37' W 122°21'0 0.0
2017-Aug-08 09:30N 47°37' W 122°21'0 0.0
2017-Aug-08 08:59N 47°37' W 122°21'0 0.0
2017-Aug-08 08:30N 47°37' W 122°21'0 0.0
2017-Aug-08 08:00N 47°37' W 122°21'0 0.0
2017-Aug-08 07:30N 47°37' W 122°21'0 0.0
2017-Aug-08 07:00N 47°37' W 122°21'0 0.0
2017-Aug-08 06:29N 47°37' W 122°21'0 0.0
2017-Aug-08 05:59N 47°37' W 122°21'0 0.0
2017-Aug-08 05:27N 47°37' W 122°21'0 0.0
2017-Aug-08 04:47N 47°37' W 122°21'0 0.0
2017-Aug-08 04:30N 47°37' W 122°21'0 0.0
2017-Aug-08 03:49N 47°37' W 122°21'0 0.0
2017-Aug-08 03:19N 47°37' W 122°21'0 0.0
2017-Aug-08 02:19N 47°37' W 122°21'0 0.0
2017-Aug-08 01:40N 47°37' W 122°21'0 0.0
2017-Aug-08 01:19N 47°37' W 122°21'0 0.0
2017-Aug-08 01:00N 47°37' W 122°21'0 0.0
2017-Aug-08 00:30N 47°37' W 122°21'0 0.0
2017-Aug-07 23:59N 47°37' W 122°21'0 0.0
2017-Aug-07 23:28N 47°37' W 122°21'0 0.0
2017-Aug-07 22:52N 47°37' W 122°21'0 0.5
2017-Aug-07 22:29N 47°37' W 122°21'5 8.9
2017-Aug-07 21:54N 47°40' W 122°27'410.0
2017-Aug-07 21:30N 47°44' W 122°27'510.5
2017-Aug-07 21:00N 47°49' W 122°28'510.1
2017-Aug-07 20:30N 47°54' W 122°30'39 1.3
2017-Aug-06 14:23N 48°31' W 122°44'7 8.2
2017-Aug-06 13:30N 48°34' W 122°54'3 5.7
2017-Aug-06 12:59N 48°31' W 122°55'0 0.3
2017-Aug-06 12:30N 48°31' W 122°55'0 0.0
2017-Aug-06 12:00N 48°31' W 122°55'0 0.0
2017-Aug-06 11:30N 48°31' W 122°55'0 0.0
2017-Aug-06 11:00N 48°31' W 122°55'0 0.0
2017-Aug-06 10:30N 48°31' W 122°55'0 0.0
2017-Aug-06 10:00N 48°31' W 122°55'0 0.0
2017-Aug-06 09:29N 48°31' W 122°55'0 0.0
2017-Aug-06 09:00N 48°31' W 122°55'0 0.0
2017-Aug-06 08:30N 48°31' W 122°55'0 0.0
2017-Aug-06 08:00N 48°31' W 122°55'0 0.0
2017-Aug-06 07:30N 48°31' W 122°55'0 0.0
2017-Aug-06 07:00N 48°31' W 122°55'0 0.0
2017-Aug-06 06:29N 48°31' W 122°55'0 0.0
2017-Aug-06 06:00N 48°31' W 122°55'0 0.0
2017-Aug-06 05:30N 48°31' W 122°55'0 0.0
2017-Aug-06 04:57N 48°31' W 122°55'0 0.0
2017-Aug-06 04:30N 48°31' W 122°55'0 0.0
2017-Aug-06 04:00N 48°31' W 122°55'0 0.0
2017-Aug-06 03:30N 48°31' W 122°55'0 0.0
2017-Aug-06 03:00N 48°31' W 122°55'0 0.0
2017-Aug-06 02:29N 48°31' W 122°55'0 0.0
2017-Aug-06 02:00N 48°31' W 122°55'0 0.0
2017-Aug-06 01:30N 48°31' W 122°55'0 0.0
2017-Aug-06 01:00N 48°31' W 122°55'0 0.0
2017-Aug-06 00:30N 48°31' W 122°55'0 0.0
2017-Aug-06 00:00N 48°31' W 122°55'0 0.0
2017-Aug-05 23:30N 48°31' W 122°55'0 0.0
2017-Aug-05 23:01N 48°31' W 122°55'0 0.0
2017-Aug-05 22:30N 48°31' W 122°55'0 0.0
2017-Aug-05 22:00N 48°31' W 122°55'0 0.0
2017-Aug-05 21:30N 48°31' W 122°55'0 0.0
2017-Aug-05 21:00N 48°31' W 122°55'0 0.0
2017-Aug-05 20:28N 48°31' W 122°55'0 0.0
2017-Aug-05 20:00N 48°31' W 122°55'0 0.0
2017-Aug-05 19:30N 48°31' W 122°55'0 0.0
2017-Aug-05 19:00N 48°31' W 122°55'0 0.0
2017-Aug-05 18:30N 48°31' W 122°55'0 0.0
2017-Aug-05 17:59N 48°31' W 122°55'0 0.0
2017-Aug-05 06:35N 48°31' W 122°55'0 0.0
2017-Aug-05 06:30N 48°31' W 122°55'0 0.0
2017-Aug-05 05:58N 48°31' W 122°55'0 0.0
2017-Aug-05 05:30N 48°31' W 122°55'0 0.0
2017-Aug-05 05:00N 48°31' W 122°55'0 0.0
2017-Aug-05 04:29N 48°31' W 122°55'0 0.0
2017-Aug-05 03:55N 48°31' W 122°55'0 0.0
2017-Aug-05 03:30N 48°31' W 122°55'0 0.0
2017-Aug-05 03:00N 48°31' W 122°55'0 0.0
2017-Aug-05 02:30N 48°31' W 122°55'0 0.0
2017-Aug-05 01:58N 48°31' W 122°55'0 0.0
2017-Aug-05 01:29N 48°31' W 122°55'0 0.0
2017-Aug-05 01:00N 48°31' W 122°55'0 0.0
2017-Aug-05 00:30N 48°31' W 122°55'0 0.0
2017-Aug-05 00:00N 48°31' W 122°55'0 0.0
2017-Aug-04 23:24N 48°31' W 122°55'0 0.0
2017-Aug-04 23:00N 48°31' W 122°55'0 0.0
2017-Aug-04 22:30N 48°31' W 122°55'0 0.3
2017-Aug-04 22:00N 48°31' W 122°55'3 5.3
2017-Aug-04 21:30N 48°33' W 122°58'9 0.5
2017-Aug-04 03:45N 48°37' W 123°10'0 0.0
2017-Aug-04 03:27N 48°37' W 123°10'0 0.0
2017-Aug-04 02:58N 48°37' W 123°10'0 0.0
2017-Aug-04 02:18N 48°37' W 123°10'0 0.0
2017-Aug-04 01:51N 48°37' W 123°10'11 0.4
2017-Aug-02 20:53N 48°35' W 122°53'  
Track history (hours):
 
Tides and Currents Weather Stations Pressure Air Temp Water Temp Dewpoint Dewpoint Depression Visibility Wind Speed Wind Dir Waves Ship Positions

Djeneba

Owner: Keller, James R, Gig Harbor, WA. More information available from US FCC via Universal Licensing System and Coast Guard Vessel Documentation Center.

Last reported at 2017-Aug-11 22:03 UTC. Time now 2017-Aug-18 10:52 UTC.
Position N 47°20' W 122°28'.

Length 19 m.

Type: Pleasure craft. MMSI: 367191910.

Date/timePositionNaut miles runAvg speedWind from/ knotsBaromVisibWave heightAir tempDewpointWater temp
2017-Aug-11 22:03N 47°20' W 122°28'1 9.5
2017-Aug-11 21:58N 47°21' W 122°27'5 9.9
2017-Aug-11 21:30N 47°23' W 122°21'1 2.3
2017-Aug-11 21:00N 47°24' W 122°20'0 0.0
2017-Aug-11 20:30N 47°24' W 122°20'0 0.1
2017-Aug-11 20:00N 47°24' W 122°20'4 8.1
2017-Aug-11 19:30N 47°27' W 122°23'9 8.5
2017-Aug-11 18:28N 47°36' W 122°23'1 0.0
2017-Aug-10 21:24N 47°36' W 122°21'6 9.3
2017-Aug-10 20:47N 47°33' W 122°27'311.0
2017-Aug-10 20:30N 47°30' W 122°30'711.4
2017-Aug-10 19:53N 47°23' W 122°32'5 0.2
2017-Aug-09 21:08N 47°18' W 122°30'3 0.1
2017-Aug-08 21:12N 47°17' W 122°26'2 9.2
2017-Aug-08 20:59N 47°19' W 122°27'5 9.8
2017-Aug-08 20:30N 47°23' W 122°23'5 9.7
2017-Aug-08 20:00N 47°27' W 122°23'610.4
2017-Aug-08 19:28N 47°33' W 122°25'5 1.0
2017-Aug-08 14:51N 47°37' W 122°21'0 0.0
2017-Aug-08 12:55N 47°37' W 122°21'0 0.0
2017-Aug-08 12:29N 47°37' W 122°21'0 0.0
2017-Aug-08 11:59N 47°37' W 122°21'0 0.0
2017-Aug-08 11:29N 47°37' W 122°21'0 0.0
2017-Aug-08 10:59N 47°37' W 122°21'0 0.0
2017-Aug-08 10:28N 47°37' W 122°21'0 0.0
2017-Aug-08 09:59N 47°37' W 122°21'0 0.0
2017-Aug-08 09:30N 47°37' W 122°21'0 0.0
2017-Aug-08 08:59N 47°37' W 122°21'0 0.0
2017-Aug-08 08:30N 47°37' W 122°21'0 0.0
2017-Aug-08 08:00N 47°37' W 122°21'0 0.0
2017-Aug-08 07:30N 47°37' W 122°21'0 0.0
2017-Aug-08 07:00N 47°37' W 122°21'0 0.0
2017-Aug-08 06:29N 47°37' W 122°21'0 0.0
2017-Aug-08 05:59N 47°37' W 122°21'0 0.0
2017-Aug-08 05:27N 47°37' W 122°21'0 0.0
2017-Aug-08 04:47N 47°37' W 122°21'0 0.0
2017-Aug-08 04:30N 47°37' W 122°21'0 0.0
2017-Aug-08 03:49N 47°37' W 122°21'0 0.0
2017-Aug-08 03:19N 47°37' W 122°21'0 0.0
2017-Aug-08 02:19N 47°37' W 122°21'0 0.0
2017-Aug-08 01:40N 47°37' W 122°21'0 0.0
2017-Aug-08 01:19N 47°37' W 122°21'0 0.0
2017-Aug-08 01:00N 47°37' W 122°21'0 0.0
2017-Aug-08 00:30N 47°37' W 122°21'0 0.0
2017-Aug-07 23:59N 47°37' W 122°21'0 0.0
2017-Aug-07 23:28N 47°37' W 122°21'0 0.0
2017-Aug-07 22:52N 47°37' W 122°21'0 0.5
2017-Aug-07 22:29N 47°37' W 122°21'5 8.9
2017-Aug-07 21:54N 47°40' W 122°27'410.0
2017-Aug-07 21:30N 47°44' W 122°27'510.5
2017-Aug-07 21:00N 47°49' W 122°28'510.1
2017-Aug-07 20:30N 47°54' W 122°30'39 1.3
2017-Aug-06 14:23N 48°31' W 122°44'7 8.2
2017-Aug-06 13:30N 48°34' W 122°54'3 5.7
2017-Aug-06 12:59N 48°31' W 122°55'0 0.3
2017-Aug-06 12:30N 48°31' W 122°55'0 0.0
2017-Aug-06 12:00N 48°31' W 122°55'0 0.0
2017-Aug-06 11:30N 48°31' W 122°55'0 0.0
2017-Aug-06 11:00N 48°31' W 122°55'0 0.0
2017-Aug-06 10:30N 48°31' W 122°55'0 0.0
2017-Aug-06 10:00N 48°31' W 122°55'0 0.0
2017-Aug-06 09:29N 48°31' W 122°55'0 0.0
2017-Aug-06 09:00N 48°31' W 122°55'0 0.0
2017-Aug-06 08:30N 48°31' W 122°55'0 0.0
2017-Aug-06 08:00N 48°31' W 122°55'0 0.0
2017-Aug-06 07:30N 48°31' W 122°55'0 0.0
2017-Aug-06 07:00N 48°31' W 122°55'0 0.0
2017-Aug-06 06:29N 48°31' W 122°55'0 0.0
2017-Aug-06 06:00N 48°31' W 122°55'0 0.0
2017-Aug-06 05:30N 48°31' W 122°55'0 0.0
2017-Aug-06 04:57N 48°31' W 122°55'0 0.0
2017-Aug-06 04:30N 48°31' W 122°55'0 0.0
2017-Aug-06 04:00N 48°31' W 122°55'0 0.0
2017-Aug-06 03:30N 48°31' W 122°55'0 0.0
2017-Aug-06 03:00N 48°31' W 122°55'0 0.0
2017-Aug-06 02:29N 48°31' W 122°55'0 0.0
2017-Aug-06 02:00N 48°31' W 122°55'0 0.0
2017-Aug-06 01:30N 48°31' W 122°55'0 0.0
2017-Aug-06 01:00N 48°31' W 122°55'0 0.0
2017-Aug-06 00:30N 48°31' W 122°55'0 0.0
2017-Aug-06 00:00N 48°31' W 122°55'0 0.0
2017-Aug-05 23:30N 48°31' W 122°55'0 0.0
2017-Aug-05 23:01N 48°31' W 122°55'0 0.0
2017-Aug-05 22:30N 48°31' W 122°55'0 0.0
2017-Aug-05 22:00N 48°31' W 122°55'0 0.0
2017-Aug-05 21:30N 48°31' W 122°55'0 0.0
2017-Aug-05 21:00N 48°31' W 122°55'0 0.0
2017-Aug-05 20:28N 48°31' W 122°55'0 0.0
2017-Aug-05 20:00N 48°31' W 122°55'0 0.0
2017-Aug-05 19:30N 48°31' W 122°55'0 0.0
2017-Aug-05 19:00N 48°31' W 122°55'0 0.0
2017-Aug-05 18:30N 48°31' W 122°55'0 0.0
2017-Aug-05 17:59N 48°31' W 122°55'0 0.0
2017-Aug-05 06:35N 48°31' W 122°55'0 0.0
2017-Aug-05 06:30N 48°31' W 122°55'0 0.0
2017-Aug-05 05:58N 48°31' W 122°55'0 0.0
2017-Aug-05 05:30N 48°31' W 122°55'0 0.0
2017-Aug-05 05:00N 48°31' W 122°55'0 0.0
2017-Aug-05 04:29N 48°31' W 122°55'0 0.0
2017-Aug-05 03:55N 48°31' W 122°55'0 0.0
2017-Aug-05 03:30N 48°31' W 122°55'0 0.0
2017-Aug-05 03:00N 48°31' W 122°55'0 0.0
2017-Aug-05 02:30N 48°31' W 122°55'0 0.0
2017-Aug-05 01:58N 48°31' W 122°55'0 0.0
2017-Aug-05 01:29N 48°31' W 122°55'0 0.0
2017-Aug-05 01:00N 48°31' W 122°55'0 0.0
2017-Aug-05 00:30N 48°31' W 122°55'0 0.0
2017-Aug-05 00:00N 48°31' W 122°55'0 0.0
2017-Aug-04 23:24N 48°31' W 122°55'0 0.0
2017-Aug-04 23:00N 48°31' W 122°55'0 0.0
2017-Aug-04 22:30N 48°31' W 122°55'0 0.3
2017-Aug-04 22:00N 48°31' W 122°55'3 5.3
2017-Aug-04 21:30N 48°33' W 122°58'9 0.5
2017-Aug-04 03:45N 48°37' W 123°10'0 0.0
2017-Aug-04 03:27N 48°37' W 123°10'0 0.0
2017-Aug-04 02:58N 48°37' W 123°10'0 0.0
2017-Aug-04 02:18N 48°37' W 123°10'0 0.0
2017-Aug-04 01:51N 48°37' W 123°10'11 0.4
2017-Aug-02 20:53N 48°35' W 122°53'  

Dump ship's entire track history